Charleston Four Corners, New York
Current Conditions -  °F | °C
As of 9:55 PM on Thursday 27 Nov 2014 (Local Time) from KNY0 Reporting Station
Overcast Overcast  
Wind Chill: 16°   Ceiling: 6500
Heat Index: 24°   Visibility: 10mi
Dew Point: 22°   Wind: 7mph
Humidity: 91%   Direction: 260°W
Pressure: 30.02"   Gusts: NA
Location:  42.8384°N, 74.4592°W
Report Text: KNY0 280255Z AUTO 26006KT 10SM BKN065 OVC075 M04/M05 A3002 RMK AO2 T10431055
Loading
Personal Weather Stations






























Interactive Weather Map New forecast layout! Learn more

10-Day Weather Forecast

Advertisements
Track Severe Weather on mobile